sensor_id;sensor_type;location;lat;lon;timestamp;pressure;altitude;pressure_sealevel;temperature;humidity
20930;BME280;21895;47.072;15.132;2023-07-16T00:00:19;96386.00;;;21.96;81.27
20930;BME280;21895;47.072;15.132;2023-07-16T00:02:47;96378.00;;;21.90;81.33
20930;BME280;21895;47.072;15.132;2023-07-16T00:05:14;96374.00;;;21.84;81.38
20930;BME280;21895;47.072;15.132;2023-07-16T00:07:41;96374.00;;;21.91;80.95
20930;BME280;21895;47.072;15.132;2023-07-16T00:10:08;96377.00;;;22.02;79.90
20930;BME280;21895;47.072;15.132;2023-07-16T00:12:35;96382.00;;;21.91;80.10
20930;BME280;21895;47.072;15.132;2023-07-16T00:15:02;96366.00;;;21.77;80.88
20930;BME280;21895;47.072;15.132;2023-07-16T00:17:28;96374.00;;;21.62;80.59
20930;BME280;21895;47.072;15.132;2023-07-16T00:19:55;96382.00;;;21.50;81.74
20930;BME280;21895;47.072;15.132;2023-07-16T00:22:21;96383.00;;;21.62;81.22
20930;BME280;21895;47.072;15.132;2023-07-16T00:24:48;96382.00;;;21.74;81.13
20930;BME280;21895;47.072;15.132;2023-07-16T00:27:15;96381.00;;;21.66;81.50
20930;BME280;21895;47.072;15.132;2023-07-16T00:29:41;96384.00;;;21.49;82.08
20930;BME280;21895;47.072;15.132;2023-07-16T00:32:08;96386.00;;;21.47;82.14
20930;BME280;21895;47.072;15.132;2023-07-16T00:34:35;96384.00;;;21.49;81.53
20930;BME280;21895;47.072;15.132;2023-07-16T00:37:01;96382.00;;;21.57;81.02
20930;BME280;21895;47.072;15.132;2023-07-16T00:39:30;96380.00;;;21.55;81.09
20930;BME280;21895;47.072;15.132;2023-07-16T00:41:56;96376.00;;;21.46;80.93
20930;BME280;21895;47.072;15.132;2023-07-16T00:44:23;96380.00;;;21.42;81.96
20930;BME280;21895;47.072;15.132;2023-07-16T00:46:50;96384.00;;;21.75;79.75
20930;BME280;21895;47.072;15.132;2023-07-16T00:49:17;96372.00;;;21.33;81.06
20930;BME280;21895;47.072;15.132;2023-07-16T00:51:45;96369.00;;;21.30;81.45
20930;BME280;21895;47.072;15.132;2023-07-16T00:54:12;96367.00;;;21.26;81.37
20930;BME280;21895;47.072;15.132;2023-07-16T00:56:39;96379.00;;;21.17;82.10
20930;BME280;21895;47.072;15.132;2023-07-16T00:59:05;96384.00;;;21.13;82.72
20930;BME280;21895;47.072;15.132;2023-07-16T01:01:32;96371.00;;;21.13;82.26
20930;BME280;21895;47.072;15.132;2023-07-16T01:03:59;96374.00;;;21.07;82.70
20930;BME280;21895;47.072;15.132;2023-07-16T01:06:38;96367.00;;;21.02;81.83
20930;BME280;21895;47.072;15.132;2023-07-16T01:09:42;96366.00;;;20.87;83.04
20930;BME280;21895;47.072;15.132;2023-07-16T01:12:11;96360.00;;;20.86;83.31
20930;BME280;21895;47.072;15.132;2023-07-16T01:14:39;96354.00;;;20.84;83.87
20930;BME280;21895;47.072;15.132;2023-07-16T01:17:12;96352.00;;;20.86;83.78
20930;BME280;21895;47.072;15.132;2023-07-16T01:19:39;96349.00;;;21.05;82.78
20930;BME280;21895;47.072;15.132;2023-07-16T01:29:29;96344.00;;;21.01;82.12
20930;BME280;21895;47.072;15.132;2023-07-16T01:32:00;96342.00;;;20.83;81.32
20930;BME280;21895;47.072;15.132;2023-07-16T01:34:30;96331.00;;;20.78;80.76
20930;BME280;21895;47.072;15.132;2023-07-16T01:36:57;96342.00;;;20.84;81.62
20930;BME280;21895;47.072;15.132;2023-07-16T01:39:24;96340.00;;;20.76;80.99
20930;BME280;21895;47.072;15.132;2023-07-16T01:41:50;96340.00;;;20.59;83.09
20930;BME280;21895;47.072;15.132;2023-07-16T01:44:18;96335.00;;;20.51;84.20
20930;BME280;21895;47.072;15.132;2023-07-16T01:47:20;96333.00;;;20.73;82.48
20930;BME280;21895;47.072;15.132;2023-07-16T01:49:48;96327.00;;;20.79;81.85
20930;BME280;21895;47.072;15.132;2023-07-16T01:52:14;96332.00;;;20.66;82.25
20930;BME280;21895;47.072;15.132;2023-07-16T01:54:41;96324.00;;;20.57;82.00
20930;BME280;21895;47.072;15.132;2023-07-16T01:57:10;96329.00;;;20.43;82.65
20930;BME280;21895;47.072;15.132;2023-07-16T01:59:36;96329.00;;;20.30;83.86
20930;BME280;21895;47.072;15.132;2023-07-16T02:02:04;96331.00;;;20.41;82.95
20930;BME280;21895;47.072;15.132;2023-07-16T02:04:30;96325.00;;;20.34;83.96
20930;BME280;21895;47.072;15.132;2023-07-16T02:06:57;96329.00;;;20.33;84.30
20930;BME280;21895;47.072;15.132;2023-07-16T02:09:23;96335.00;;;20.42;83.84
20930;BME280;21895;47.072;15.132;2023-07-16T02:11:51;96328.00;;;20.50;83.25
20930;BME280;21895;47.072;15.132;2023-07-16T02:14:18;96326.00;;;20.63;81.69
20930;BME280;21895;47.072;15.132;2023-07-16T02:16:45;96331.00;;;20.55;81.92
20930;BME280;21895;47.072;15.132;2023-07-16T02:19:11;96327.00;;;20.47;82.26
20930;BME280;21895;47.072;15.132;2023-07-16T02:21:38;96329.00;;;20.48;82.51
20930;BME280;21895;47.072;15.132;2023-07-16T02:24:05;96333.00;;;20.50;82.16
20930;BME280;21895;47.072;15.132;2023-07-16T02:26:31;96323.00;;;20.64;81.10
20930;BME280;21895;47.072;15.132;2023-07-16T02:28:58;96325.00;;;20.72;80.59
20930;BME280;21895;47.072;15.132;2023-07-16T02:31:26;96320.00;;;20.46;81.82
20930;BME280;21895;47.072;15.132;2023-07-16T02:33:52;96320.00;;;20.52;81.49
20930;BME280;21895;47.072;15.132;2023-07-16T02:36:19;96320.00;;;20.67;80.94
20930;BME280;21895;47.072;15.132;2023-07-16T02:38:45;96330.00;;;20.51;80.88
20930;BME280;21895;47.072;15.132;2023-07-16T02:41:12;96334.00;;;20.33;80.74
20930;BME280;21895;47.072;15.132;2023-07-16T02:43:41;96331.00;;;20.17;81.27
20930;BME280;21895;47.072;15.132;2023-07-16T02:46:08;96331.00;;;20.03;81.75
20930;BME280;21895;47.072;15.132;2023-07-16T02:48:34;96332.00;;;20.06;82.61
20930;BME280;21895;47.072;15.132;2023-07-16T02:51:01;96340.00;;;20.26;82.09
20930;BME280;21895;47.072;15.132;2023-07-16T02:53:27;96326.00;;;20.07;80.85
20930;BME280;21895;47.072;15.132;2023-07-16T02:55:56;96337.00;;;19.97;82.20
20930;BME280;21895;47.072;15.132;2023-07-16T02:58:22;96343.00;;;20.07;83.65
20930;BME280;21895;47.072;15.132;2023-07-16T03:00:49;96337.00;;;20.21;82.92
20930;BME280;21895;47.072;15.132;2023-07-16T03:03:16;96336.00;;;20.29;82.29
20930;BME280;21895;47.072;15.132;2023-07-16T03:05:42;96333.00;;;20.26;82.27
20930;BME280;21895;47.072;15.132;2023-07-16T03:08:09;96333.00;;;20.31;81.88
20930;BME280;21895;47.072;15.132;2023-07-16T03:10:35;96332.00;;;20.30;81.74
20930;BME280;21895;47.072;15.132;2023-07-16T03:13:02;96336.00;;;20.15;82.16
20930;BME280;21895;47.072;15.132;2023-07-16T03:15:29;96327.00;;;20.06;82.81
20930;BME280;21895;47.072;15.132;2023-07-16T03:17:55;96333.00;;;20.05;82.91
20930;BME280;21895;47.072;15.132;2023-07-16T03:20:22;96331.00;;;20.05;82.90
20930;BME280;21895;47.072;15.132;2023-07-16T03:22:49;96340.00;;;20.27;81.70
20930;BME280;21895;47.072;15.132;2023-07-16T03:25:15;96335.00;;;20.06;82.77
20930;BME280;21895;47.072;15.132;2023-07-16T03:27:42;96329.00;;;19.95;83.56
20930;BME280;21895;47.072;15.132;2023-07-16T03:30:09;96335.00;;;20.01;83.33
20930;BME280;21895;47.072;15.132;2023-07-16T03:32:35;96340.00;;;20.09;83.19
20930;BME280;21895;47.072;15.132;2023-07-16T03:35:18;96336.00;;;20.14;82.37
20930;BME280;21895;47.072;15.132;2023-07-16T03:37:45;96348.00;;;20.35;81.65
20930;BME280;21895;47.072;15.132;2023-07-16T03:40:16;96352.00;;;20.44;80.39
20930;BME280;21895;47.072;15.132;2023-07-16T03:42:43;96349.00;;;20.25;80.63
20930;BME280;21895;47.072;15.132;2023-07-16T03:45:10;96347.00;;;19.96;82.44
20930;BME280;21895;47.072;15.132;2023-07-16T03:47:37;96348.00;;;19.93;83.25
20930;BME280;21895;47.072;15.132;2023-07-16T03:50:05;96350.00;;;19.91;82.91
20930;BME280;21895;47.072;15.132;2023-07-16T03:52:31;96350.00;;;20.02;81.05
20930;BME280;21895;47.072;15.132;2023-07-16T03:54:58;96350.00;;;19.93;79.81
20930;BME280;21895;47.072;15.132;2023-07-16T03:57:27;96350.00;;;19.76;80.41
20930;BME280;21895;47.072;15.132;2023-07-16T03:59:54;96346.00;;;19.82;81.82
20930;BME280;21895;47.072;15.132;2023-07-16T04:02:20;96355.00;;;19.98;82.39
20930;BME280;21895;47.072;15.132;2023-07-16T04:04:47;96370.00;;;20.09;82.02
20930;BME280;21895;47.072;15.132;2023-07-16T04:07:15;96366.00;;;20.22;81.13
20930;BME280;21895;47.072;15.132;2023-07-16T04:09:41;96375.00;;;20.22;80.91
20930;BME280;21895;47.072;15.132;2023-07-16T04:12:08;96371.00;;;20.18;80.85
20930;BME280;21895;47.072;15.132;2023-07-16T04:14:35;96377.00;;;20.22;80.72
20930;BME280;21895;47.072;15.132;2023-07-16T04:17:01;96378.00;;;20.19;81.19
20930;BME280;21895;47.072;15.132;2023-07-16T04:19:28;96387.00;;;20.32;80.54
20930;BME280;21895;47.072;15.132;2023-07-16T04:21:55;96391.00;;;20.35;80.21
20930;BME280;21895;47.072;15.132;2023-07-16T04:24:21;96399.00;;;20.46;79.61
20930;BME280;21895;47.072;15.132;2023-07-16T04:26:48;96398.00;;;20.39;79.81
20930;BME280;21895;47.072;15.132;2023-07-16T04:29:15;96406.00;;;20.41;80.16
20930;BME280;21895;47.072;15.132;2023-07-16T04:31:41;96414.00;;;20.54;79.30
20930;BME280;21895;47.072;15.132;2023-07-16T04:34:08;96411.00;;;20.66;78.62
20930;BME280;21895;47.072;15.132;2023-07-16T04:36:35;96415.00;;;20.53;79.26
20930;BME280;21895;47.072;15.132;2023-07-16T04:39:02;96417.00;;;20.72;78.33
20930;BME280;21895;47.072;15.132;2023-07-16T04:41:28;96414.00;;;20.80;78.25
20930;BME280;21895;47.072;15.132;2023-07-16T04:43:55;96417.00;;;20.82;78.41
20930;BME280;21895;47.072;15.132;2023-07-16T04:46:21;96427.00;;;21.06;76.97
20930;BME280;21895;47.072;15.132;2023-07-16T04:48:48;96424.00;;;20.86;77.30
20930;BME280;21895;47.072;15.132;2023-07-16T04:51:15;96422.00;;;20.82;78.12
20930;BME280;21895;47.072;15.132;2023-07-16T04:53:42;96431.00;;;21.05;77.29
20930;BME280;21895;47.072;15.132;2023-07-16T04:56:13;96431.00;;;20.94;78.10
20930;BME280;21895;47.072;15.132;2023-07-16T04:58:40;96441.00;;;20.97;78.04
20930;BME280;21895;47.072;15.132;2023-07-16T05:01:08;96448.00;;;21.02;78.00
20930;BME280;21895;47.072;15.132;2023-07-16T05:03:36;96455.00;;;21.13;78.41
20930;BME280;21895;47.072;15.132;2023-07-16T05:06:03;96449.00;;;21.25;77.73
20930;BME280;21895;47.072;15.132;2023-07-16T05:08:29;96460.00;;;21.68;76.61
20930;BME280;21895;47.072;15.132;2023-07-16T05:10:56;96468.00;;;22.15;75.79
20930;BME280;21895;47.072;15.132;2023-07-16T05:13:22;96455.00;;;23.05;72.45
20930;BME280;21895;47.072;15.132;2023-07-16T05:15:49;96463.00;;;23.33;73.14
20930;BME280;21895;47.072;15.132;2023-07-16T05:18:16;96460.00;;;23.76;71.50
20930;BME280;21895;47.072;15.132;2023-07-16T05:20:46;96465.00;;;24.05;70.83
20930;BME280;21895;47.072;15.132;2023-07-16T05:23:12;96467.00;;;24.60;68.50
20930;BME280;21895;47.072;15.132;2023-07-16T05:25:45;96470.00;;;24.93;67.57
20930;BME280;21895;47.072;15.132;2023-07-16T05:28:12;96474.00;;;25.41;64.66
20930;BME280;21895;47.072;15.132;2023-07-16T05:30:38;96476.00;;;25.53;65.54
20930;BME280;21895;47.072;15.132;2023-07-16T05:33:05;96485.00;;;25.80;63.46
20930;BME280;21895;47.072;15.132;2023-07-16T05:35:31;96488.00;;;25.97;61.71
20930;BME280;21895;47.072;15.132;2023-07-16T05:37:58;96490.00;;;25.96;63.56
20930;BME280;21895;47.072;15.132;2023-07-16T05:40:24;96496.00;;;26.30;62.50
20930;BME280;21895;47.072;15.132;2023-07-16T05:42:51;96507.00;;;26.52;61.64
20930;BME280;21895;47.072;15.132;2023-07-16T05:45:17;96505.00;;;26.67;60.42
20930;BME280;21895;47.072;15.132;2023-07-16T05:47:44;96506.00;;;27.01;60.84
20930;BME280;21895;47.072;15.132;2023-07-16T05:50:11;96522.00;;;27.16;59.67
20930;BME280;21895;47.072;15.132;2023-07-16T05:52:42;96517.00;;;27.24;59.70
20930;BME280;21895;47.072;15.132;2023-07-16T05:55:08;96530.00;;;27.55;58.75
20930;BME280;21895;47.072;15.132;2023-07-16T05:57:35;96520.00;;;27.66;56.78
20930;BME280;21895;47.072;15.132;2023-07-16T06:00:02;96511.00;;;27.70;57.62
20930;BME280;21895;47.072;15.132;2023-07-16T06:02:31;96526.00;;;27.93;58.41
20930;BME280;21895;47.072;15.132;2023-07-16T06:04:57;96524.00;;;28.00;58.47
20930;BME280;21895;47.072;15.132;2023-07-16T06:07:24;96521.00;;;28.23;57.37
20930;BME280;21895;47.072;15.132;2023-07-16T06:09:50;96525.00;;;28.39;58.48
20930;BME280;21895;47.072;15.132;2023-07-16T06:12:17;96535.00;;;28.44;58.90
20930;BME280;21895;47.072;15.132;2023-07-16T06:14:43;96527.00;;;28.84;57.38
20930;BME280;21895;47.072;15.132;2023-07-16T06:17:10;96537.00;;;28.86;56.30
20930;BME280;21895;47.072;15.132;2023-07-16T06:19:36;96556.00;;;28.98;56.74
20930;BME280;21895;47.072;15.132;2023-07-16T06:22:04;96547.00;;;28.90;56.43
20930;BME280;21895;47.072;15.132;2023-07-16T06:24:30;96547.00;;;29.15;57.74
20930;BME280;21895;47.072;15.132;2023-07-16T06:26:57;96546.00;;;29.33;56.94
20930;BME280;21895;47.072;15.132;2023-07-16T06:29:23;96551.00;;;29.43;54.38
20930;BME280;21895;47.072;15.132;2023-07-16T06:31:58;96545.00;;;29.75;53.56
20930;BME280;21895;47.072;15.132;2023-07-16T06:34:28;96534.00;;;29.61;52.87
20930;BME280;21895;47.072;15.132;2023-07-16T06:36:54;96544.00;;;29.95;51.14
20930;BME280;21895;47.072;15.132;2023-07-16T06:39:21;96548.00;;;30.22;49.31
20930;BME280;21895;47.072;15.132;2023-07-16T06:41:47;96548.00;;;30.58;45.80
20930;BME280;21895;47.072;15.132;2023-07-16T06:44:14;96546.00;;;30.92;46.86
20930;BME280;21895;47.072;15.132;2023-07-16T06:46:41;96557.00;;;31.09;45.22
20930;BME280;21895;47.072;15.132;2023-07-16T06:49:08;96564.00;;;31.44;42.24
20930;BME280;21895;47.072;15.132;2023-07-16T06:51:34;96559.00;;;31.92;42.35
20930;BME280;21895;47.072;15.132;2023-07-16T06:54:01;96568.00;;;32.00;46.40
20930;BME280;21895;47.072;15.132;2023-07-16T06:56:27;96567.00;;;32.26;48.70
20930;BME280;21895;47.072;15.132;2023-07-16T06:58:54;96561.00;;;32.08;47.57
20930;BME280;21895;47.072;15.132;2023-07-16T07:01:21;96571.00;;;32.17;47.25
20930;BME280;21895;47.072;15.132;2023-07-16T07:03:47;96567.00;;;32.04;47.39
20930;BME280;21895;47.072;15.132;2023-07-16T07:06:14;96569.00;;;32.11;47.88
20930;BME280;21895;47.072;15.132;2023-07-16T07:08:41;96573.00;;;32.37;47.94
20930;BME280;21895;47.072;15.132;2023-07-16T07:11:08;96589.00;;;32.71;46.80
20930;BME280;21895;47.072;15.132;2023-07-16T07:13:35;96579.00;;;32.76;45.20
20930;BME280;21895;47.072;15.132;2023-07-16T07:16:01;96582.00;;;32.79;45.10
20930;BME280;21895;47.072;15.132;2023-07-16T07:18:28;96592.00;;;32.80;46.32
20930;BME280;21895;47.072;15.132;2023-07-16T07:20:54;96593.00;;;32.67;46.74
20930;BME280;21895;47.072;15.132;2023-07-16T07:23:21;96593.00;;;32.88;46.04
20930;BME280;21895;47.072;15.132;2023-07-16T07:25:51;96603.00;;;32.50;46.34
20930;BME280;21895;47.072;15.132;2023-07-16T07:28:19;96601.00;;;32.87;46.26
20930;BME280;21895;47.072;15.132;2023-07-16T07:30:46;96610.00;;;32.96;45.93
20930;BME280;21895;47.072;15.132;2023-07-16T07:33:13;96616.00;;;32.96;46.47
20930;BME280;21895;47.072;15.132;2023-07-16T07:35:39;96613.00;;;33.17;44.72
20930;BME280;21895;47.072;15.132;2023-07-16T07:38:06;96617.00;;;33.13;45.91
20930;BME280;21895;47.072;15.132;2023-07-16T07:40:33;96624.00;;;33.19;45.52
20930;BME280;21895;47.072;15.132;2023-07-16T07:42:59;96620.00;;;33.39;45.27
20930;BME280;21895;47.072;15.132;2023-07-16T07:45:26;96622.00;;;33.43;45.71
20930;BME280;21895;47.072;15.132;2023-07-16T07:47:53;96622.00;;;33.33;44.68
20930;BME280;21895;47.072;15.132;2023-07-16T07:50:19;96631.00;;;33.43;45.69
20930;BME280;21895;47.072;15.132;2023-07-16T07:52:46;96626.00;;;33.62;45.97
20930;BME280;21895;47.072;15.132;2023-07-16T07:55:12;96628.00;;;33.74;44.34
20930;BME280;21895;47.072;15.132;2023-07-16T07:57:39;96631.00;;;33.73;44.70
20930;BME280;21895;47.072;15.132;2023-07-16T08:00:07;96634.00;;;33.57;45.85
20930;BME280;21895;47.072;15.132;2023-07-16T08:02:38;96643.00;;;33.79;45.95
20930;BME280;21895;47.072;15.132;2023-07-16T08:05:05;96647.00;;;33.76;44.68
20930;BME280;21895;47.072;15.132;2023-07-16T08:07:32;96648.00;;;33.87;43.95
20930;BME280;21895;47.072;15.132;2023-07-16T08:09:59;96655.00;;;33.85;43.91
20930;BME280;21895;47.072;15.132;2023-07-16T08:12:26;96657.00;;;33.84;43.03
20930;BME280;21895;47.072;15.132;2023-07-16T08:14:52;96657.00;;;33.81;43.17
20930;BME280;21895;47.072;15.132;2023-07-16T08:17:19;96657.00;;;33.84;41.80
20930;BME280;21895;47.072;15.132;2023-07-16T08:19:49;96662.00;;;33.87;43.38
20930;BME280;21895;47.072;15.132;2023-07-16T08:22:16;96663.00;;;33.83;42.64
20930;BME280;21895;47.072;15.132;2023-07-16T08:24:43;96667.00;;;33.71;42.99
20930;BME280;21895;47.072;15.132;2023-07-16T08:27:10;96672.00;;;33.80;42.72
20930;BME280;21895;47.072;15.132;2023-07-16T08:29:37;96675.00;;;33.78;43.62
20930;BME280;21895;47.072;15.132;2023-07-16T08:32:04;96674.00;;;33.80;43.30
20930;BME280;21895;47.072;15.132;2023-07-16T08:34:30;96677.00;;;34.08;42.17
20930;BME280;21895;47.072;15.132;2023-07-16T08:36:57;96674.00;;;34.19;42.43
20930;BME280;21895;47.072;15.132;2023-07-16T08:39:23;96684.00;;;34.21;40.41
20930;BME280;21895;47.072;15.132;2023-07-16T08:41:53;96677.00;;;34.20;41.02
20930;BME280;21895;47.072;15.132;2023-07-16T08:44:20;96687.00;;;34.23;39.14
20930;BME280;21895;47.072;15.132;2023-07-16T08:46:48;96698.00;;;34.18;40.50
20930;BME280;21895;47.072;15.132;2023-07-16T08:49:18;96688.00;;;34.40;40.70
20930;BME280;21895;47.072;15.132;2023-07-16T08:51:48;96700.00;;;34.46;37.55
20930;BME280;21895;47.072;15.132;2023-07-16T08:54:15;96701.00;;;34.32;37.13
20930;BME280;21895;47.072;15.132;2023-07-16T08:56:48;96701.00;;;34.23;38.36
20930;BME280;21895;47.072;15.132;2023-07-16T08:59:18;96704.00;;;34.20;39.11
20930;BME280;21895;47.072;15.132;2023-07-16T09:01:47;96706.00;;;34.32;38.75
20930;BME280;21895;47.072;15.132;2023-07-16T09:04:15;96709.00;;;34.53;37.27
20930;BME280;21895;47.072;15.132;2023-07-16T09:06:43;96707.00;;;34.41;38.11
20930;BME280;21895;47.072;15.132;2023-07-16T09:09:21;96723.00;;;34.43;37.08
20930;BME280;21895;47.072;15.132;2023-07-16T09:11:48;96711.00;;;34.37;38.25
20930;BME280;21895;47.072;15.132;2023-07-16T09:14:18;96709.00;;;34.45;39.41
20930;BME280;21895;47.072;15.132;2023-07-16T09:16:49;96717.00;;;34.45;38.13
20930;BME280;21895;47.072;15.132;2023-07-16T09:19:16;96711.00;;;34.65;37.54
20930;BME280;21895;47.072;15.132;2023-07-16T09:21:51;96709.00;;;34.55;35.67
20930;BME280;21895;47.072;15.132;2023-07-16T09:24:19;96721.00;;;34.49;38.73
20930;BME280;21895;47.072;15.132;2023-07-16T09:26:53;96715.00;;;34.48;37.29
20930;BME280;21895;47.072;15.132;2023-07-16T09:29:20;96719.00;;;34.78;37.72
20930;BME280;21895;47.072;15.132;2023-07-16T09:32:20;96718.00;;;34.95;37.79
20930;BME280;21895;47.072;15.132;2023-07-16T09:34:49;96715.00;;;35.03;38.98
20930;BME280;21895;47.072;15.132;2023-07-16T09:37:18;96726.00;;;35.12;39.08
20930;BME280;21895;47.072;15.132;2023-07-16T09:39:46;96722.00;;;35.19;36.20
20930;BME280;21895;47.072;15.132;2023-07-16T09:42:15;96727.00;;;35.04;37.43
20930;BME280;21895;47.072;15.132;2023-07-16T09:44:47;96720.00;;;35.21;37.40
20930;BME280;21895;47.072;15.132;2023-07-16T09:47:14;96719.00;;;35.22;37.12
20930;BME280;21895;47.072;15.132;2023-07-16T09:49:40;96721.00;;;35.30;38.66
20930;BME280;21895;47.072;15.132;2023-07-16T09:52:08;96712.00;;;35.07;36.11
20930;BME280;21895;47.072;15.132;2023-07-16T09:54:37;96711.00;;;35.06;38.66
20930;BME280;21895;47.072;15.132;2023-07-16T09:57:06;96715.00;;;35.25;36.52
20930;BME280;21895;47.072;15.132;2023-07-16T09:59:34;96707.00;;;35.18;37.96
20930;BME280;21895;47.072;15.132;2023-07-16T10:02:01;96706.00;;;35.16;40.29
20930;BME280;21895;47.072;15.132;2023-07-16T10:04:38;96703.00;;;35.15;39.55
20930;BME280;21895;47.072;15.132;2023-07-16T10:07:23;96709.00;;;35.14;36.86
20930;BME280;21895;47.072;15.132;2023-07-16T10:09:55;96709.00;;;35.19;37.29
20930;BME280;21895;47.072;15.132;2023-07-16T10:12:26;96709.00;;;35.46;35.76
20930;BME280;21895;47.072;15.132;2023-07-16T10:14:55;96707.00;;;35.24;36.09
20930;BME280;21895;47.072;15.132;2023-07-16T10:17:26;96707.00;;;35.14;37.31
20930;BME280;21895;47.072;15.132;2023-07-16T10:20:11;96709.00;;;35.21;37.05
20930;BME280;21895;47.072;15.132;2023-07-16T10:22:46;96700.00;;;35.28;35.70
20930;BME280;21895;47.072;15.132;2023-07-16T10:25:25;96710.00;;;35.38;34.05
20930;BME280;21895;47.072;15.132;2023-07-16T10:27:54;96705.00;;;35.26;36.07
20930;BME280;21895;47.072;15.132;2023-07-16T10:30:21;96703.00;;;35.20;38.28
20930;BME280;21895;47.072;15.132;2023-07-16T10:32:50;96699.00;;;35.36;36.74
20930;BME280;21895;47.072;15.132;2023-07-16T10:35:18;96703.00;;;35.30;36.28
20930;BME280;21895;47.072;15.132;2023-07-16T10:37:45;96696.00;;;35.34;35.34
20930;BME280;21895;47.072;15.132;2023-07-16T10:40:13;96703.00;;;35.23;35.37
20930;BME280;21895;47.072;15.132;2023-07-16T10:42:42;96703.00;;;35.21;35.38
20930;BME280;21895;47.072;15.132;2023-07-16T10:45:10;96704.00;;;35.13;34.76
20930;BME280;21895;47.072;15.132;2023-07-16T10:47:49;96703.00;;;35.08;36.18
20930;BME280;21895;47.072;15.132;2023-07-16T10:50:20;96698.00;;;35.35;36.40
20930;BME280;21895;47.072;15.132;2023-07-16T10:52:55;96700.00;;;35.38;36.37
20930;BME280;21895;47.072;15.132;2023-07-16T10:55:23;96697.00;;;35.53;35.81
20930;BME280;21895;47.072;15.132;2023-07-16T10:57:52;96707.00;;;35.69;35.38
20930;BME280;21895;47.072;15.132;2023-07-16T11:00:21;96695.00;;;35.69;34.13
20930;BME280;21895;47.072;15.132;2023-07-16T11:02:50;96695.00;;;35.66;34.11
20930;BME280;21895;47.072;15.132;2023-07-16T11:05:18;96692.00;;;35.58;34.77
20930;BME280;21895;47.072;15.132;2023-07-16T11:07:49;96696.00;;;35.40;34.54
20930;BME280;21895;47.072;15.132;2023-07-16T11:10:21;96691.00;;;35.24;34.55
20930;BME280;21895;47.072;15.132;2023-07-16T11:12:54;96694.00;;;35.36;36.26
20930;BME280;21895;47.072;15.132;2023-07-16T11:15:33;96698.00;;;35.41;36.46
20930;BME280;21895;47.072;15.132;2023-07-16T11:18:02;96694.00;;;35.45;36.17
20930;BME280;21895;47.072;15.132;2023-07-16T11:20:29;96699.00;;;35.46;35.50
20930;BME280;21895;47.072;15.132;2023-07-16T11:22:59;96702.00;;;35.50;35.89
20930;BME280;21895;47.072;15.132;2023-07-16T11:25:26;96695.00;;;35.57;36.58
20930;BME280;21895;47.072;15.132;2023-07-16T11:27:55;96699.00;;;35.72;38.41
20930;BME280;21895;47.072;15.132;2023-07-16T11:30:24;96696.00;;;35.59;37.78
20930;BME280;21895;47.072;15.132;2023-07-16T11:32:52;96700.00;;;35.53;37.13
20930;BME280;21895;47.072;15.132;2023-07-16T11:35:20;96696.00;;;35.25;37.22
20930;BME280;21895;47.072;15.132;2023-07-16T11:37:47;96696.00;;;34.97;36.99
20930;BME280;21895;47.072;15.132;2023-07-16T11:40:19;96699.00;;;34.80;37.78
20930;BME280;21895;47.072;15.132;2023-07-16T11:42:46;96695.00;;;35.00;39.21
20930;BME280;21895;47.072;15.132;2023-07-16T11:45:19;96705.00;;;34.77;39.13
20930;BME280;21895;47.072;15.132;2023-07-16T11:47:46;96708.00;;;34.83;37.81
20930;BME280;21895;47.072;15.132;2023-07-16T11:50:13;96707.00;;;34.64;39.34
20930;BME280;21895;47.072;15.132;2023-07-16T11:52:40;96719.00;;;34.93;38.53
20930;BME280;21895;47.072;15.132;2023-07-16T11:55:07;96718.00;;;35.18;39.92
20930;BME280;21895;47.072;15.132;2023-07-16T11:57:34;96713.00;;;34.90;38.66
20930;BME280;21895;47.072;15.132;2023-07-16T12:00:03;96712.00;;;34.75;38.85
20930;BME280;21895;47.072;15.132;2023-07-16T12:02:31;96716.00;;;34.83;39.89
20930;BME280;21895;47.072;15.132;2023-07-16T12:04:57;96710.00;;;35.07;38.83
20930;BME280;21895;47.072;15.132;2023-07-16T12:07:37;96705.00;;;34.86;39.99
20930;BME280;21895;47.072;15.132;2023-07-16T12:10:06;96702.00;;;34.74;41.22
20930;BME280;21895;47.072;15.132;2023-07-16T12:12:33;96703.00;;;34.90;39.49
20930;BME280;21895;47.072;15.132;2023-07-16T12:15:05;96708.00;;;34.81;40.83
20930;BME280;21895;47.072;15.132;2023-07-16T12:17:32;96712.00;;;34.59;40.07
20930;BME280;21895;47.072;15.132;2023-07-16T12:19:59;96706.00;;;34.42;40.24
20930;BME280;21895;47.072;15.132;2023-07-16T12:22:27;96710.00;;;33.99;42.10
20930;BME280;21895;47.072;15.132;2023-07-16T12:24:53;96706.00;;;34.07;41.85
20930;BME280;21895;47.072;15.132;2023-07-16T12:27:21;96698.00;;;34.16;40.31
20930;BME280;21895;47.072;15.132;2023-07-16T12:29:48;96707.00;;;34.33;39.73
20930;BME280;21895;47.072;15.132;2023-07-16T12:32:15;96711.00;;;34.29;40.69
20930;BME280;21895;47.072;15.132;2023-07-16T12:34:41;96710.00;;;34.27;41.65
20930;BME280;21895;47.072;15.132;2023-07-16T12:37:08;96716.00;;;34.46;40.92
20930;BME280;21895;47.072;15.132;2023-07-16T12:39:34;96709.00;;;34.64;40.42
20930;BME280;21895;47.072;15.132;2023-07-16T12:42:01;96704.00;;;34.66;41.70
20930;BME280;21895;47.072;15.132;2023-07-16T12:44:28;96714.00;;;34.84;40.44
20930;BME280;21895;47.072;15.132;2023-07-16T12:46:54;96710.00;;;34.66;40.96
20930;BME280;21895;47.072;15.132;2023-07-16T12:49:21;96716.00;;;34.68;40.95
20930;BME280;21895;47.072;15.132;2023-07-16T12:51:48;96717.00;;;34.78;39.89
20930;BME280;21895;47.072;15.132;2023-07-16T12:54:14;96718.00;;;34.69;39.89
20930;BME280;21895;47.072;15.132;2023-07-16T12:56:41;96721.00;;;34.59;39.81
20930;BME280;21895;47.072;15.132;2023-07-16T12:59:07;96717.00;;;34.85;39.45
20930;BME280;21895;47.072;15.132;2023-07-16T13:01:34;96708.00;;;34.77;40.43